createdAt,value
2023-01-13T00:00:55.918Z,-18.51
2023-01-13T00:06:00.069Z,-18.45
2023-01-13T00:11:02.926Z,-18.59
2023-01-13T00:16:06.520Z,-18.47
2023-01-13T00:21:13.594Z,-18.69
2023-01-13T00:26:19.591Z,-18.43
2023-01-13T00:31:22.436Z,-18.50
2023-01-13T00:36:25.472Z,-18.27
2023-01-13T00:41:28.194Z,-18.19
2023-01-13T00:46:30.742Z,-18.14
2023-01-13T00:51:33.453Z,-18.19
2023-01-13T00:56:40.803Z,-18.14
2023-01-13T01:01:44.328Z,-18.07
2023-01-13T01:06:47.315Z,-18.04
2023-01-13T01:11:50.033Z,-18.04
2023-01-13T01:16:52.763Z,-17.96
2023-01-13T01:21:55.548Z,-17.93
2023-01-13T01:26:58.319Z,-17.98
2023-01-13T01:32:00.992Z,-17.83
2023-01-13T01:37:03.733Z,-17.78
2023-01-13T01:42:24.854Z,-17.73
2023-01-13T01:47:28.854Z,-17.78
2023-01-13T01:52:35.985Z,-17.73
2023-01-13T01:57:50.883Z,-17.68
2023-01-13T02:02:53.801Z,-17.75
2023-01-13T02:07:58.562Z,-17.67
2023-01-13T02:13:03.959Z,-17.61
2023-01-13T02:18:22.016Z,-17.60
2023-01-13T02:23:52.365Z,-17.52
2023-01-13T02:29:34.822Z,-17.42
2023-01-13T02:34:42.491Z,-17.42
2023-01-13T02:40:26.667Z,-17.35
2023-01-13T02:45:34.674Z,-17.38
2023-01-13T02:50:41.739Z,-17.24
2023-01-13T02:55:50.811Z,-17.16
2023-01-13T03:00:53.881Z,-17.14
2023-01-13T03:06:09.466Z,-17.06
2023-01-13T03:11:13.776Z,-17.03
2023-01-13T03:16:22.527Z,-17.01
2023-01-13T03:21:51.786Z,-16.95
2023-01-13T03:27:04.735Z,-16.91
2023-01-13T03:32:10.139Z,-16.80
2023-01-13T03:37:14.867Z,-16.76
2023-01-13T03:42:24.321Z,-16.70
2023-01-13T03:47:44.373Z,-16.64
2023-01-13T03:53:13.768Z,-16.50
2023-01-13T03:58:46.340Z,-16.43
2023-01-13T04:03:55.299Z,-16.37
2023-01-13T04:09:36.700Z,-16.29
2023-01-13T04:14:39.737Z,-16.31
2023-01-13T04:19:42.459Z,-16.12
2023-01-13T04:24:45.271Z,-16.08
2023-01-13T04:29:48.064Z,-15.95
2023-01-13T04:34:50.924Z,-15.84
2023-01-13T04:39:53.576Z,-15.67
2023-01-13T04:44:57.013Z,-15.52
2023-01-13T04:50:00.126Z,-15.32
2023-01-13T04:55:02.856Z,-15.32
2023-01-13T05:00:07.658Z,-15.06
2023-01-13T05:05:10.909Z,-15.02
2023-01-13T05:10:13.924Z,-15.10
2023-01-13T05:15:35.125Z,-14.96
2023-01-13T05:20:38.044Z,-14.95
2023-01-13T05:25:44.193Z,-14.84
2023-01-13T05:30:49.682Z,-14.77
2023-01-13T05:35:52.886Z,-14.80
2023-01-13T05:41:14.125Z,-14.77
2023-01-13T05:46:18.022Z,-14.62
2023-01-13T05:51:26.501Z,-14.41
2023-01-13T05:56:29.414Z,-14.28
2023-01-13T06:01:32.082Z,-14.09
2023-01-13T06:06:34.963Z,-14.00
2023-01-13T06:11:37.595Z,-13.92
2023-01-13T06:16:40.828Z,-13.89
2023-01-13T06:21:46.544Z,-13.88
2023-01-13T06:26:49.217Z,-13.74
2023-01-13T06:31:51.929Z,-13.74
2023-01-13T06:36:55.655Z,-13.64
2023-01-13T06:42:16.790Z,-13.58
2023-01-13T06:47:19.611Z,-13.47
2023-01-13T06:52:23.855Z,-13.49
2023-01-13T06:57:26.785Z,-13.53
2023-01-13T07:02:29.472Z,-13.61
2023-01-13T07:07:33.124Z,-13.61
2023-01-13T07:12:56.560Z,-13.65
2023-01-13T07:17:59.990Z,-13.86
2023-01-13T07:23:02.520Z,-13.87
2023-01-13T07:28:05.238Z,-14.01
2023-01-13T07:33:07.976Z,-14.11
2023-01-13T07:38:10.742Z,-14.08
2023-01-13T07:43:32.221Z,-14.09
2023-01-13T07:48:35.560Z,-14.14
2023-01-13T07:53:38.802Z,-14.13
2023-01-13T07:58:41.842Z,-14.10
2023-01-13T08:03:44.808Z,-14.03
2023-01-13T08:08:47.451Z,-13.98
2023-01-13T08:13:50.196Z,-13.95
2023-01-13T08:18:52.901Z,-14.04
2023-01-13T08:23:55.600Z,-14.09
2023-01-13T08:28:58.288Z,-14.24
2023-01-13T08:34:00.964Z,-14.25
2023-01-13T08:39:04.199Z,-14.20
2023-01-13T08:44:09.440Z,-14.25
2023-01-13T08:49:12.166Z,-14.33
2023-01-13T08:54:14.975Z,-14.47
2023-01-13T08:59:19.283Z,-14.54
2023-01-13T09:04:24.051Z,-14.60
2023-01-13T09:09:28.165Z,-14.61
2023-01-13T09:14:33.069Z,-14.60
2023-01-13T09:19:36.019Z,-14.65
2023-01-13T09:24:38.730Z,-14.73
2023-01-13T09:29:41.947Z,-14.90
2023-01-13T09:35:03.159Z,-15.06
2023-01-13T09:40:15.942Z,-15.00
2023-01-13T09:45:23.320Z,-15.04
2023-01-13T09:50:44.050Z,-15.08
2023-01-13T09:55:47.253Z,-15.18
2023-01-13T10:00:55.771Z,-15.04
2023-01-13T10:06:12.941Z,-15.08
2023-01-13T10:11:39.238Z,-15.25
2023-01-13T10:16:46.938Z,-15.35
2023-01-13T10:22:15.687Z,-15.29
2023-01-13T10:27:27.112Z,-15.27
2023-01-13T10:32:29.801Z,-15.28
2023-01-13T10:37:32.593Z,-15.24
2023-01-13T10:42:35.301Z,-15.24
2023-01-13T10:47:38.184Z,-15.18
2023-01-13T10:52:55.054Z,-15.15
2023-01-13T10:57:57.852Z,-15.27
2023-01-13T11:03:22.065Z,-15.26
2023-01-13T11:08:46.054Z,-15.24
2023-01-13T11:14:09.284Z,-15.16
2023-01-13T11:19:16.541Z,-15.28
2023-01-13T11:24:43.443Z,-15.18
2023-01-13T11:30:04.572Z,-15.18
2023-01-13T11:35:18.688Z,-15.14
2023-01-13T11:40:43.505Z,-15.18
2023-01-13T11:45:51.469Z,-15.19
2023-01-13T11:51:06.299Z,-15.15
2023-01-13T11:56:28.128Z,-15.16
2023-01-13T12:01:39.929Z,-15.18
2023-01-13T12:06:43.939Z,-15.21
2023-01-13T12:12:23.705Z,-15.18
2023-01-13T12:17:44.023Z,-15.14
2023-01-13T12:22:48.664Z,-15.24
2023-01-13T12:28:04.067Z,-15.16
2023-01-13T12:33:42.021Z,-15.18
2023-01-13T12:39:05.005Z,-15.17
2023-01-13T12:44:20.781Z,-15.12
2023-01-13T12:49:30.352Z,-15.14
2023-01-13T12:54:42.803Z,-15.11
2023-01-13T12:59:49.414Z,-15.13
2023-01-13T13:04:56.432Z,-15.14
2023-01-13T13:10:03.109Z,-15.15
2023-01-13T13:15:20.691Z,-15.10
2023-01-13T13:20:57.487Z,-15.10
2023-01-13T13:26:24.234Z,-15.15
2023-01-13T13:31:45.183Z,-15.08
2023-01-13T13:38:00.218Z,-15.08
2023-01-13T13:43:22.675Z,-15.05
2023-01-13T13:48:31.091Z,-15.18
2023-01-13T13:53:35.955Z,-15.03
2023-01-13T13:58:38.726Z,-15.01
2023-01-13T14:03:41.524Z,-15.03
2023-01-13T14:08:50.307Z,-15.16
2023-01-13T14:14:07.090Z,-15.08
2023-01-13T14:19:44.535Z,-15.06
2023-01-13T14:24:49.690Z,-15.07
2023-01-13T14:29:56.896Z,-15.00
2023-01-13T14:35:00.030Z,-15.03
2023-01-13T14:40:03.016Z,-14.99
2023-01-13T14:45:23.568Z,-15.02
2023-01-13T14:50:31.755Z,-15.01
2023-01-13T14:55:40.855Z,-14.99
2023-01-13T15:00:43.647Z,-14.94
2023-01-13T15:05:48.650Z,-14.99
2023-01-13T15:11:00.239Z,-14.95
2023-01-13T15:16:07.926Z,-14.91
2023-01-13T15:21:11.137Z,-14.88
2023-01-13T15:26:20.564Z,-14.86
2023-01-13T15:31:24.337Z,-15.03
2023-01-13T15:36:31.891Z,-15.05
2023-01-13T15:41:53.285Z,-14.96
2023-01-13T15:46:56.225Z,-15.02
2023-01-13T15:51:58.976Z,-14.97
2023-01-13T15:57:01.740Z,-15.00
2023-01-13T16:02:04.482Z,-14.98
2023-01-13T16:07:14.583Z,-14.95
2023-01-13T16:12:17.467Z,-14.93
2023-01-13T16:17:24.211Z,-15.03
2023-01-13T16:22:27.124Z,-15.07
2023-01-13T16:27:29.804Z,-14.91
2023-01-13T16:32:32.518Z,-15.02
2023-01-13T16:37:35.253Z,-15.00
2023-01-13T16:42:38.188Z,-14.87
2023-01-13T16:47:41.164Z,-14.86
2023-01-13T16:52:43.896Z,-15.03
2023-01-13T16:57:46.667Z,-14.90
2023-01-13T17:02:49.560Z,-14.93
2023-01-13T17:07:52.337Z,-15.00
2023-01-13T17:12:56.041Z,-14.96
2023-01-13T17:18:00.351Z,-14.97
2023-01-13T17:23:03.026Z,-14.93
2023-01-13T17:28:05.764Z,-14.93
2023-01-13T17:33:08.470Z,-14.94
2023-01-13T17:38:11.364Z,-14.97
2023-01-13T17:43:14.053Z,-14.96
2023-01-13T17:48:16.792Z,-14.92
2023-01-13T17:53:20.262Z,-15.02
2023-01-13T17:58:22.885Z,-14.96
2023-01-13T18:03:25.718Z,-15.00
2023-01-13T18:08:28.722Z,-15.01
2023-01-13T18:13:33.386Z,-15.04
2023-01-13T18:18:36.064Z,-15.10
2023-01-13T18:24:11.107Z,-15.14
2023-01-13T18:29:13.784Z,-15.13
2023-01-13T18:34:16.572Z,-15.12
2023-01-13T18:39:19.282Z,-15.10
2023-01-13T18:44:22.124Z,-15.12
2023-01-13T18:49:24.840Z,-15.12
2023-01-13T18:54:27.741Z,-15.17
2023-01-13T18:59:31.496Z,-15.17
2023-01-13T19:04:36.093Z,-15.19
2023-01-13T19:09:39.849Z,-15.25
2023-01-13T19:14:44.482Z,-15.12
2023-01-13T19:19:51.089Z,-15.03
2023-01-13T19:24:53.983Z,-15.02
2023-01-13T19:30:02.335Z,-15.04
2023-01-13T19:35:07.612Z,-15.05
2023-01-13T19:40:14.241Z,-15.01
2023-01-13T19:45:32.426Z,-15.02
2023-01-13T19:50:40.032Z,-15.02
2023-01-13T19:55:49.662Z,-15.06
2023-01-13T20:00:56.086Z,-15.08
2023-01-13T20:06:06.430Z,-15.03
2023-01-13T20:11:23.300Z,-15.06
2023-01-13T20:16:26.943Z,-15.02
2023-01-13T20:21:29.613Z,-15.02
2023-01-13T20:26:32.690Z,-15.00
2023-01-13T20:31:35.403Z,-15.03
2023-01-13T20:36:39.283Z,-15.02
2023-01-13T20:42:14.724Z,-15.09
2023-01-13T20:47:17.360Z,-15.00
2023-01-13T20:52:20.715Z,-14.95
2023-01-13T20:57:23.412Z,-14.95
2023-01-13T21:02:26.040Z,-14.93
2023-01-13T21:07:28.830Z,-14.96
2023-01-13T21:12:50.336Z,-15.03
2023-01-13T21:18:11.562Z,-14.98
2023-01-13T21:23:14.174Z,-14.92
2023-01-13T21:28:18.216Z,-14.88
2023-01-13T21:33:22.004Z,-14.90
2023-01-13T21:38:27.074Z,-14.88
2023-01-13T21:43:48.504Z,-14.95
2023-01-13T21:48:51.121Z,-14.80
2023-01-13T21:53:54.577Z,-14.79
2023-01-13T21:58:57.133Z,-14.77
2023-01-13T22:04:14.792Z,-14.77
2023-01-13T22:09:17.702Z,-14.76
2023-01-13T22:14:20.403Z,-14.76
2023-01-13T22:19:24.480Z,-14.71
2023-01-13T22:24:27.216Z,-14.71
2023-01-13T22:29:29.821Z,-14.75
2023-01-13T22:34:32.844Z,-14.78
2023-01-13T22:39:35.614Z,-14.73
2023-01-13T22:44:38.638Z,-14.68
2023-01-13T22:49:42.434Z,-14.58
2023-01-13T22:54:45.207Z,-14.56
2023-01-13T22:59:48.045Z,-14.64
2023-01-13T23:04:51.064Z,-14.56
2023-01-13T23:09:53.729Z,-14.52
2023-01-13T23:14:56.603Z,-14.55
2023-01-13T23:19:59.272Z,-14.63
2023-01-13T23:25:02.034Z,-14.52
2023-01-13T23:30:08.276Z,-14.47
2023-01-13T23:35:11.281Z,-14.52
2023-01-13T23:40:14.327Z,-14.40
2023-01-13T23:45:17.129Z,-14.35
2023-01-13T23:50:19.891Z,-14.35
2023-01-13T23:55:22.815Z,-14.33
